sensor_id;sensor_type;location;lat;lon;timestamp;P1;durP1;ratioP1;P2;durP2;ratioP2
8642;SDS011;4359;49.358;11.256;2023-07-24T00:02:09;6.85;;;4.50;;
8642;SDS011;4359;49.358;11.256;2023-07-24T00:04:34;9.95;;;4.90;;
8642;SDS011;4359;49.358;11.256;2023-07-24T00:07:00;10.40;;;5.13;;
8642;SDS011;4359;49.358;11.256;2023-07-24T00:09:26;10.50;;;4.93;;
8642;SDS011;4359;49.358;11.256;2023-07-24T00:11:51;8.80;;;4.97;;
8642;SDS011;4359;49.358;11.256;2023-07-24T00:14:17;8.73;;;5.05;;
8642;SDS011;4359;49.358;11.256;2023-07-24T00:16:43;10.05;;;5.18;;
8642;SDS011;4359;49.358;11.256;2023-07-24T00:19:08;7.78;;;4.72;;
8642;SDS011;4359;49.358;11.256;2023-07-24T00:21:34;10.75;;;5.50;;
8642;SDS011;4359;49.358;11.256;2023-07-24T00:24:00;8.43;;;5.25;;
8642;SDS011;4359;49.358;11.256;2023-07-24T00:26:25;11.00;;;5.80;;
8642;SDS011;4359;49.358;11.256;2023-07-24T00:28:51;11.05;;;5.32;;
8642;SDS011;4359;49.358;11.256;2023-07-24T00:31:16;9.63;;;5.55;;
8642;SDS011;4359;49.358;11.256;2023-07-24T00:33:42;11.07;;;5.97;;
8642;SDS011;4359;49.358;11.256;2023-07-24T00:36:08;10.57;;;5.97;;
8642;SDS011;4359;49.358;11.256;2023-07-24T00:38:33;12.18;;;5.68;;
8642;SDS011;4359;49.358;11.256;2023-07-24T00:40:59;10.55;;;5.30;;
8642;SDS011;4359;49.358;11.256;2023-07-24T00:43:25;11.10;;;6.00;;
8642;SDS011;4359;49.358;11.256;2023-07-24T00:45:50;14.30;;;6.68;;
8642;SDS011;4359;49.358;11.256;2023-07-24T00:48:16;14.27;;;6.63;;
8642;SDS011;4359;49.358;11.256;2023-07-24T00:50:42;12.57;;;6.43;;
8642;SDS011;4359;49.358;11.256;2023-07-24T00:53:10;11.57;;;6.80;;
8642;SDS011;4359;49.358;11.256;2023-07-24T00:55:37;13.98;;;7.07;;
8642;SDS011;4359;49.358;11.256;2023-07-24T00:58:03;15.57;;;6.55;;
8642;SDS011;4359;49.358;11.256;2023-07-24T01:00:29;13.85;;;7.20;;
8642;SDS011;4359;49.358;11.256;2023-07-24T01:02:55;14.77;;;6.50;;
8642;SDS011;4359;49.358;11.256;2023-07-24T01:05:22;11.98;;;6.43;;
8642;SDS011;4359;49.358;11.256;2023-07-24T01:07:50;13.27;;;6.47;;
8642;SDS011;4359;49.358;11.256;2023-07-24T01:10:17;11.65;;;6.65;;
8642;SDS011;4359;49.358;11.256;2023-07-24T01:12:47;14.13;;;7.03;;
8642;SDS011;4359;49.358;11.256;2023-07-24T01:15:42;11.65;;;6.68;;
8642;SDS011;4359;49.358;11.256;2023-07-24T01:18:25;11.63;;;7.43;;
8642;SDS011;4359;49.358;11.256;2023-07-24T01:20:55;12.65;;;7.25;;
8642;SDS011;4359;49.358;11.256;2023-07-24T01:26:03;14.00;;;8.35;;
8642;SDS011;4359;49.358;11.256;2023-07-24T01:28:30;11.98;;;7.80;;
8642;SDS011;4359;49.358;11.256;2023-07-24T01:30:56;16.13;;;7.85;;
8642;SDS011;4359;49.358;11.256;2023-07-24T01:33:22;11.40;;;7.47;;
8642;SDS011;4359;49.358;11.256;2023-07-24T01:35:55;14.90;;;7.35;;
8642;SDS011;4359;49.358;11.256;2023-07-24T01:38:24;12.88;;;7.78;;
8642;SDS011;4359;49.358;11.256;2023-07-24T01:40:54;11.57;;;7.78;;
8642;SDS011;4359;49.358;11.256;2023-07-24T01:43:20;14.15;;;8.10;;
8642;SDS011;4359;49.358;11.256;2023-07-24T01:45:47;14.75;;;7.88;;
8642;SDS011;4359;49.358;11.256;2023-07-24T01:48:13;16.00;;;8.70;;
8642;SDS011;4359;49.358;11.256;2023-07-24T01:50:39;12.82;;;8.10;;
8642;SDS011;4359;49.358;11.256;2023-07-24T01:53:04;11.80;;;8.00;;
8642;SDS011;4359;49.358;11.256;2023-07-24T01:55:30;14.90;;;9.10;;
8642;SDS011;4359;49.358;11.256;2023-07-24T01:57:56;15.35;;;7.93;;
8642;SDS011;4359;49.358;11.256;2023-07-24T02:00:21;14.40;;;8.10;;
8642;SDS011;4359;49.358;11.256;2023-07-24T02:02:47;18.25;;;9.48;;
8642;SDS011;4359;49.358;11.256;2023-07-24T02:05:12;14.02;;;8.75;;
8642;SDS011;4359;49.358;11.256;2023-07-24T02:07:38;16.10;;;9.27;;
8642;SDS011;4359;49.358;11.256;2023-07-24T02:10:04;14.43;;;8.55;;
8642;SDS011;4359;49.358;11.256;2023-07-24T02:12:30;16.42;;;9.35;;
8642;SDS011;4359;49.358;11.256;2023-07-24T02:14:55;13.82;;;8.32;;
8642;SDS011;4359;49.358;11.256;2023-07-24T02:17:22;16.58;;;9.07;;
8642;SDS011;4359;49.358;11.256;2023-07-24T02:19:48;14.20;;;9.07;;
8642;SDS011;4359;49.358;11.256;2023-07-24T02:22:14;16.60;;;9.38;;
8642;SDS011;4359;49.358;11.256;2023-07-24T02:24:40;14.55;;;8.85;;
8642;SDS011;4359;49.358;11.256;2023-07-24T02:27:06;14.43;;;8.65;;
8642;SDS011;4359;49.358;11.256;2023-07-24T02:29:31;16.75;;;8.85;;
8642;SDS011;4359;49.358;11.256;2023-07-24T02:31:57;14.25;;;8.63;;
8642;SDS011;4359;49.358;11.256;2023-07-24T02:34:24;13.23;;;8.80;;
8642;SDS011;4359;49.358;11.256;2023-07-24T02:36:54;14.23;;;9.18;;
8642;SDS011;4359;49.358;11.256;2023-07-24T02:39:20;15.00;;;8.90;;
8642;SDS011;4359;49.358;11.256;2023-07-24T02:41:47;12.70;;;7.97;;
8642;SDS011;4359;49.358;11.256;2023-07-24T02:44:14;12.10;;;7.85;;
8642;SDS011;4359;49.358;11.256;2023-07-24T02:46:39;14.50;;;9.05;;
8642;SDS011;4359;49.358;11.256;2023-07-24T02:49:05;16.23;;;8.50;;
8642;SDS011;4359;49.358;11.256;2023-07-24T02:51:31;13.50;;;8.15;;
8642;SDS011;4359;49.358;11.256;2023-07-24T02:53:56;14.15;;;8.43;;
8642;SDS011;4359;49.358;11.256;2023-07-24T02:56:22;14.90;;;9.23;;
8642;SDS011;4359;49.358;11.256;2023-07-24T02:58:48;13.32;;;8.90;;
8642;SDS011;4359;49.358;11.256;2023-07-24T03:01:13;17.52;;;9.48;;
8642;SDS011;4359;49.358;11.256;2023-07-24T03:03:39;15.13;;;8.80;;
8642;SDS011;4359;49.358;11.256;2023-07-24T03:06:06;13.93;;;8.88;;
8642;SDS011;4359;49.358;11.256;2023-07-24T03:08:32;14.65;;;8.85;;
8642;SDS011;4359;49.358;11.256;2023-07-24T03:10:59;13.43;;;8.40;;
8642;SDS011;4359;49.358;11.256;2023-07-24T03:13:25;14.52;;;9.45;;
8642;SDS011;4359;49.358;11.256;2023-07-24T03:15:51;17.10;;;10.32;;
8642;SDS011;4359;49.358;11.256;2023-07-24T03:18:21;16.08;;;9.77;;
8642;SDS011;4359;49.358;11.256;2023-07-24T03:20:47;17.65;;;9.63;;
8642;SDS011;4359;49.358;11.256;2023-07-24T03:23:13;15.63;;;9.95;;
8642;SDS011;4359;49.358;11.256;2023-07-24T03:25:38;16.92;;;10.30;;
8642;SDS011;4359;49.358;11.256;2023-07-24T03:28:04;16.70;;;9.30;;
8642;SDS011;4359;49.358;11.256;2023-07-24T03:30:30;19.55;;;10.25;;
8642;SDS011;4359;49.358;11.256;2023-07-24T03:32:55;13.57;;;9.27;;
8642;SDS011;4359;49.358;11.256;2023-07-24T03:35:21;15.50;;;9.63;;
8642;SDS011;4359;49.358;11.256;2023-07-24T03:37:47;16.50;;;9.90;;
8642;SDS011;4359;49.358;11.256;2023-07-24T03:40:12;17.67;;;10.43;;
8642;SDS011;4359;49.358;11.256;2023-07-24T03:42:38;14.90;;;10.02;;
8642;SDS011;4359;49.358;11.256;2023-07-24T03:45:04;16.15;;;9.45;;
8642;SDS011;4359;49.358;11.256;2023-07-24T03:47:30;16.25;;;8.95;;
8642;SDS011;4359;49.358;11.256;2023-07-24T03:49:56;15.82;;;10.02;;
8642;SDS011;4359;49.358;11.256;2023-07-24T03:52:22;16.83;;;9.85;;
8642;SDS011;4359;49.358;11.256;2023-07-24T03:54:47;14.55;;;9.73;;
8642;SDS011;4359;49.358;11.256;2023-07-24T03:57:13;16.85;;;9.88;;
8642;SDS011;4359;49.358;11.256;2023-07-24T03:59:39;20.58;;;9.75;;
8642;SDS011;4359;49.358;11.256;2023-07-24T04:02:04;16.67;;;9.68;;
8642;SDS011;4359;49.358;11.256;2023-07-24T04:04:31;15.07;;;10.02;;
8642;SDS011;4359;49.358;11.256;2023-07-24T04:06:56;16.58;;;10.45;;
8642;SDS011;4359;49.358;11.256;2023-07-24T04:09:22;14.85;;;9.63;;
8642;SDS011;4359;49.358;11.256;2023-07-24T04:11:48;15.95;;;10.43;;
8642;SDS011;4359;49.358;11.256;2023-07-24T04:14:13;16.23;;;9.43;;
8642;SDS011;4359;49.358;11.256;2023-07-24T04:16:39;16.65;;;10.20;;
8642;SDS011;4359;49.358;11.256;2023-07-24T04:19:04;14.23;;;9.52;;
8642;SDS011;4359;49.358;11.256;2023-07-24T04:21:30;15.80;;;10.18;;
8642;SDS011;4359;49.358;11.256;2023-07-24T04:23:56;18.85;;;10.35;;
8642;SDS011;4359;49.358;11.256;2023-07-24T04:26:22;16.05;;;10.45;;
8642;SDS011;4359;49.358;11.256;2023-07-24T04:28:47;16.52;;;9.65;;
8642;SDS011;4359;49.358;11.256;2023-07-24T04:31:13;17.13;;;10.18;;
8642;SDS011;4359;49.358;11.256;2023-07-24T04:33:38;16.10;;;9.82;;
8642;SDS011;4359;49.358;11.256;2023-07-24T04:36:04;16.40;;;9.90;;
8642;SDS011;4359;49.358;11.256;2023-07-24T04:38:30;17.58;;;10.65;;
8642;SDS011;4359;49.358;11.256;2023-07-24T04:40:56;15.77;;;9.55;;
8642;SDS011;4359;49.358;11.256;2023-07-24T04:43:21;17.15;;;9.68;;
8642;SDS011;4359;49.358;11.256;2023-07-24T04:45:47;16.85;;;9.32;;
8642;SDS011;4359;49.358;11.256;2023-07-24T04:48:12;14.68;;;9.63;;
8642;SDS011;4359;49.358;11.256;2023-07-24T04:50:38;13.95;;;9.07;;
8642;SDS011;4359;49.358;11.256;2023-07-24T04:53:04;13.25;;;9.27;;
8642;SDS011;4359;49.358;11.256;2023-07-24T04:55:29;14.00;;;8.93;;
8642;SDS011;4359;49.358;11.256;2023-07-24T04:57:55;15.65;;;9.63;;
8642;SDS011;4359;49.358;11.256;2023-07-24T05:00:21;13.23;;;8.35;;
8642;SDS011;4359;49.358;11.256;2023-07-24T05:02:46;15.98;;;8.82;;
8642;SDS011;4359;49.358;11.256;2023-07-24T05:05:12;12.43;;;8.20;;
8642;SDS011;4359;49.358;11.256;2023-07-24T05:07:37;10.30;;;6.85;;
8642;SDS011;4359;49.358;11.256;2023-07-24T05:10:03;13.93;;;8.48;;
8642;SDS011;4359;49.358;11.256;2023-07-24T05:12:29;12.23;;;7.55;;
8642;SDS011;4359;49.358;11.256;2023-07-24T05:14:55;12.50;;;8.48;;
8642;SDS011;4359;49.358;11.256;2023-07-24T05:17:20;12.88;;;7.63;;
8642;SDS011;4359;49.358;11.256;2023-07-24T05:19:46;11.93;;;8.02;;
8642;SDS011;4359;49.358;11.256;2023-07-24T05:22:12;13.35;;;8.32;;
8642;SDS011;4359;49.358;11.256;2023-07-24T05:24:37;12.30;;;8.07;;
8642;SDS011;4359;49.358;11.256;2023-07-24T05:27:04;16.65;;;7.93;;
8642;SDS011;4359;49.358;11.256;2023-07-24T05:29:29;13.88;;;8.18;;
8642;SDS011;4359;49.358;11.256;2023-07-24T05:31:55;13.13;;;8.18;;
8642;SDS011;4359;49.358;11.256;2023-07-24T05:34:21;13.80;;;8.05;;
8642;SDS011;4359;49.358;11.256;2023-07-24T05:36:47;14.48;;;8.68;;
8642;SDS011;4359;49.358;11.256;2023-07-24T05:39:12;13.68;;;8.38;;
8642;SDS011;4359;49.358;11.256;2023-07-24T05:41:38;13.02;;;7.93;;
8642;SDS011;4359;49.358;11.256;2023-07-24T05:44:04;11.55;;;7.95;;
8642;SDS011;4359;49.358;11.256;2023-07-24T05:46:29;15.90;;;8.10;;
8642;SDS011;4359;49.358;11.256;2023-07-24T05:48:55;14.18;;;8.57;;
8642;SDS011;4359;49.358;11.256;2023-07-24T05:51:21;11.30;;;7.47;;
8642;SDS011;4359;49.358;11.256;2023-07-24T05:53:47;13.15;;;7.85;;
8642;SDS011;4359;49.358;11.256;2023-07-24T05:56:13;13.48;;;7.47;;
8642;SDS011;4359;49.358;11.256;2023-07-24T05:58:38;13.70;;;7.15;;
8642;SDS011;4359;49.358;11.256;2023-07-24T06:01:04;11.55;;;7.88;;
8642;SDS011;4359;49.358;11.256;2023-07-24T06:03:32;12.32;;;7.65;;
8642;SDS011;4359;49.358;11.256;2023-07-24T06:05:58;11.80;;;7.30;;
8642;SDS011;4359;49.358;11.256;2023-07-24T06:08:23;13.63;;;7.57;;
8642;SDS011;4359;49.358;11.256;2023-07-24T06:10:49;15.18;;;7.57;;
8642;SDS011;4359;49.358;11.256;2023-07-24T06:13:16;12.20;;;7.55;;
8642;SDS011;4359;49.358;11.256;2023-07-24T06:15:42;11.15;;;7.47;;
8642;SDS011;4359;49.358;11.256;2023-07-24T06:18:08;16.45;;;7.70;;
8642;SDS011;4359;49.358;11.256;2023-07-24T06:20:34;13.23;;;7.13;;
8642;SDS011;4359;49.358;11.256;2023-07-24T06:23:00;12.02;;;7.60;;
8642;SDS011;4359;49.358;11.256;2023-07-24T06:25:25;10.40;;;7.25;;
8642;SDS011;4359;49.358;11.256;2023-07-24T06:27:51;11.82;;;7.63;;
8642;SDS011;4359;49.358;11.256;2023-07-24T06:30:17;14.52;;;7.88;;
8642;SDS011;4359;49.358;11.256;2023-07-24T06:32:42;11.25;;;7.50;;
8642;SDS011;4359;49.358;11.256;2023-07-24T06:35:08;11.50;;;7.30;;
8642;SDS011;4359;49.358;11.256;2023-07-24T06:37:34;13.85;;;8.00;;
8642;SDS011;4359;49.358;11.256;2023-07-24T06:39:59;12.05;;;7.03;;
8642;SDS011;4359;49.358;11.256;2023-07-24T06:42:25;14.00;;;7.32;;
8642;SDS011;4359;49.358;11.256;2023-07-24T06:44:51;13.93;;;7.63;;
8642;SDS011;4359;49.358;11.256;2023-07-24T06:47:16;9.80;;;6.82;;
8642;SDS011;4359;49.358;11.256;2023-07-24T06:49:42;11.98;;;7.88;;
8642;SDS011;4359;49.358;11.256;2023-07-24T06:52:08;15.18;;;7.78;;
8642;SDS011;4359;49.358;11.256;2023-07-24T06:54:33;15.32;;;7.78;;
8642;SDS011;4359;49.358;11.256;2023-07-24T06:56:59;12.30;;;7.35;;
8642;SDS011;4359;49.358;11.256;2023-07-24T06:59:24;11.63;;;7.40;;
8642;SDS011;4359;49.358;11.256;2023-07-24T07:01:50;11.35;;;7.45;;
8642;SDS011;4359;49.358;11.256;2023-07-24T07:04:16;11.05;;;7.30;;
8642;SDS011;4359;49.358;11.256;2023-07-24T07:06:41;13.55;;;6.95;;
8642;SDS011;4359;49.358;11.256;2023-07-24T07:09:07;11.50;;;6.93;;
8642;SDS011;4359;49.358;11.256;2023-07-24T07:11:33;14.23;;;7.65;;
8642;SDS011;4359;49.358;11.256;2023-07-24T07:13:59;14.30;;;7.75;;
8642;SDS011;4359;49.358;11.256;2023-07-24T07:16:24;12.27;;;7.00;;
8642;SDS011;4359;49.358;11.256;2023-07-24T07:18:50;10.10;;;6.85;;
8642;SDS011;4359;49.358;11.256;2023-07-24T07:21:16;12.13;;;6.80;;
8642;SDS011;4359;49.358;11.256;2023-07-24T07:23:41;11.75;;;6.38;;
8642;SDS011;4359;49.358;11.256;2023-07-24T07:26:07;9.15;;;6.55;;
8642;SDS011;4359;49.358;11.256;2023-07-24T07:28:33;12.95;;;7.30;;
8642;SDS011;4359;49.358;11.256;2023-07-24T07:30:58;10.20;;;7.05;;
8642;SDS011;4359;49.358;11.256;2023-07-24T07:33:24;11.15;;;6.82;;
8642;SDS011;4359;49.358;11.256;2023-07-24T07:35:50;14.68;;;7.18;;
8642;SDS011;4359;49.358;11.256;2023-07-24T07:38:15;12.77;;;7.22;;
8642;SDS011;4359;49.358;11.256;2023-07-24T07:40:41;9.57;;;6.93;;
8642;SDS011;4359;49.358;11.256;2023-07-24T07:43:07;15.23;;;7.25;;
8642;SDS011;4359;49.358;11.256;2023-07-24T07:45:32;10.00;;;7.18;;
8642;SDS011;4359;49.358;11.256;2023-07-24T07:47:58;11.18;;;7.75;;
8642;SDS011;4359;49.358;11.256;2023-07-24T07:50:24;10.35;;;7.30;;
8642;SDS011;4359;49.358;11.256;2023-07-24T07:52:50;9.52;;;7.15;;
8642;SDS011;4359;49.358;11.256;2023-07-24T07:55:17;12.18;;;7.97;;
8642;SDS011;4359;49.358;11.256;2023-07-24T07:57:43;12.43;;;7.95;;
8642;SDS011;4359;49.358;11.256;2023-07-24T08:00:09;11.93;;;7.60;;
8642;SDS011;4359;49.358;11.256;2023-07-24T08:02:36;11.70;;;7.68;;
8642;SDS011;4359;49.358;11.256;2023-07-24T08:05:05;11.82;;;7.55;;
8642;SDS011;4359;49.358;11.256;2023-07-24T08:07:34;11.60;;;7.65;;
8642;SDS011;4359;49.358;11.256;2023-07-24T08:10:00;13.82;;;8.13;;
8642;SDS011;4359;49.358;11.256;2023-07-24T08:12:26;12.75;;;7.80;;
8642;SDS011;4359;49.358;11.256;2023-07-24T08:14:52;11.98;;;8.30;;
8642;SDS011;4359;49.358;11.256;2023-07-24T08:17:17;12.90;;;7.60;;
8642;SDS011;4359;49.358;11.256;2023-07-24T08:19:43;14.15;;;7.95;;
8642;SDS011;4359;49.358;11.256;2023-07-24T08:22:09;15.23;;;8.52;;
8642;SDS011;4359;49.358;11.256;2023-07-24T08:24:35;12.70;;;7.78;;
8642;SDS011;4359;49.358;11.256;2023-07-24T08:27:01;12.55;;;8.20;;
8642;SDS011;4359;49.358;11.256;2023-07-24T08:29:26;12.20;;;7.82;;
8642;SDS011;4359;49.358;11.256;2023-07-24T08:31:52;15.93;;;8.25;;
8642;SDS011;4359;49.358;11.256;2023-07-24T08:34:18;11.75;;;8.32;;
8642;SDS011;4359;49.358;11.256;2023-07-24T08:36:44;13.30;;;7.95;;
8642;SDS011;4359;49.358;11.256;2023-07-24T08:39:10;12.82;;;8.43;;
8642;SDS011;4359;49.358;11.256;2023-07-24T08:41:36;11.68;;;7.97;;
8642;SDS011;4359;49.358;11.256;2023-07-24T08:44:03;14.23;;;7.93;;
8642;SDS011;4359;49.358;11.256;2023-07-24T08:46:33;13.00;;;8.15;;
8642;SDS011;4359;49.358;11.256;2023-07-24T08:49:01;14.88;;;8.50;;
8642;SDS011;4359;49.358;11.256;2023-07-24T08:51:26;13.35;;;8.18;;
8642;SDS011;4359;49.358;11.256;2023-07-24T08:53:56;17.08;;;8.07;;
8642;SDS011;4359;49.358;11.256;2023-07-24T08:56:22;15.07;;;8.10;;
8642;SDS011;4359;49.358;11.256;2023-07-24T08:58:48;11.95;;;8.60;;
8642;SDS011;4359;49.358;11.256;2023-07-24T09:01:13;15.32;;;7.97;;
8642;SDS011;4359;49.358;11.256;2023-07-24T09:03:39;14.88;;;8.55;;
8642;SDS011;4359;49.358;11.256;2023-07-24T09:06:05;13.10;;;8.38;;
8642;SDS011;4359;49.358;11.256;2023-07-24T09:08:39;12.52;;;7.80;;
8642;SDS011;4359;49.358;11.256;2023-07-24T09:11:06;13.13;;;8.52;;
8642;SDS011;4359;49.358;11.256;2023-07-24T09:13:33;15.65;;;8.68;;
8642;SDS011;4359;49.358;11.256;2023-07-24T09:16:00;16.02;;;8.57;;
8642;SDS011;4359;49.358;11.256;2023-07-24T09:18:26;14.43;;;8.15;;
8642;SDS011;4359;49.358;11.256;2023-07-24T09:20:52;14.50;;;7.72;;
8642;SDS011;4359;49.358;11.256;2023-07-24T09:23:25;13.50;;;8.20;;
8642;SDS011;4359;49.358;11.256;2023-07-24T09:25:55;15.45;;;8.30;;
8642;SDS011;4359;49.358;11.256;2023-07-24T09:28:20;16.98;;;8.95;;
8642;SDS011;4359;49.358;11.256;2023-07-24T09:30:56;14.90;;;8.05;;
8642;SDS011;4359;49.358;11.256;2023-07-24T09:33:23;12.93;;;8.45;;
8642;SDS011;4359;49.358;11.256;2023-07-24T09:36:00;11.45;;;7.85;;
8642;SDS011;4359;49.358;11.256;2023-07-24T09:38:26;12.82;;;8.70;;
8642;SDS011;4359;49.358;11.256;2023-07-24T09:40:52;12.65;;;8.23;;
8642;SDS011;4359;49.358;11.256;2023-07-24T09:45:48;15.18;;;8.15;;
8642;SDS011;4359;49.358;11.256;2023-07-24T09:48:15;15.43;;;9.07;;
8642;SDS011;4359;49.358;11.256;2023-07-24T09:50:43;12.55;;;7.82;;
8642;SDS011;4359;49.358;11.256;2023-07-24T09:56:06;10.82;;;7.43;;
8642;SDS011;4359;49.358;11.256;2023-07-24T09:58:33;12.25;;;7.72;;
8642;SDS011;4359;49.358;11.256;2023-07-24T10:01:03;11.48;;;7.32;;
8642;SDS011;4359;49.358;11.256;2023-07-24T10:03:34;12.20;;;7.88;;
8642;SDS011;4359;49.358;11.256;2023-07-24T10:06:00;15.90;;;7.75;;
8642;SDS011;4359;49.358;11.256;2023-07-24T10:08:27;12.48;;;7.65;;
8642;SDS011;4359;49.358;11.256;2023-07-24T10:10:53;11.43;;;7.82;;
8642;SDS011;4359;49.358;11.256;2023-07-24T10:13:19;12.25;;;6.82;;
8642;SDS011;4359;49.358;11.256;2023-07-24T10:15:47;12.00;;;7.50;;
8642;SDS011;4359;49.358;11.256;2023-07-24T10:18:14;12.00;;;7.68;;
8642;SDS011;4359;49.358;11.256;2023-07-24T10:20:41;12.63;;;7.30;;
8642;SDS011;4359;49.358;11.256;2023-07-24T10:23:09;13.25;;;8.02;;
8642;SDS011;4359;49.358;11.256;2023-07-24T10:25:38;13.65;;;7.25;;
8642;SDS011;4359;49.358;11.256;2023-07-24T10:28:09;12.45;;;7.60;;
8642;SDS011;4359;49.358;11.256;2023-07-24T10:30:37;13.98;;;7.80;;
8642;SDS011;4359;49.358;11.256;2023-07-24T10:33:12;11.95;;;7.80;;
8642;SDS011;4359;49.358;11.256;2023-07-24T10:35:46;11.38;;;7.53;;
8642;SDS011;4359;49.358;11.256;2023-07-24T10:38:14;13.65;;;8.35;;
8642;SDS011;4359;49.358;11.256;2023-07-24T10:40:42;12.50;;;7.95;;
8642;SDS011;4359;49.358;11.256;2023-07-24T10:43:12;11.02;;;6.97;;
8642;SDS011;4359;49.358;11.256;2023-07-24T10:45:45;11.48;;;7.55;;
8642;SDS011;4359;49.358;11.256;2023-07-24T10:48:13;15.80;;;8.43;;
8642;SDS011;4359;49.358;11.256;2023-07-24T10:50:41;12.65;;;7.63;;
8642;SDS011;4359;49.358;11.256;2023-07-24T10:53:09;12.38;;;8.32;;
8642;SDS011;4359;49.358;11.256;2023-07-24T10:55:35;12.45;;;8.05;;
8642;SDS011;4359;49.358;11.256;2023-07-24T10:58:01;14.43;;;8.35;;
8642;SDS011;4359;49.358;11.256;2023-07-24T11:00:26;13.70;;;7.88;;
8642;SDS011;4359;49.358;11.256;2023-07-24T11:02:53;20.35;;;8.85;;
8642;SDS011;4359;49.358;11.256;2023-07-24T11:05:20;11.20;;;7.90;;
8642;SDS011;4359;49.358;11.256;2023-07-24T11:07:47;15.60;;;7.70;;
8642;SDS011;4359;49.358;11.256;2023-07-24T11:10:17;12.38;;;8.30;;
8642;SDS011;4359;49.358;11.256;2023-07-24T11:12:43;12.23;;;7.78;;
8642;SDS011;4359;49.358;11.256;2023-07-24T11:15:09;16.25;;;8.10;;
8642;SDS011;4359;49.358;11.256;2023-07-24T11:17:36;14.23;;;8.10;;
8642;SDS011;4359;49.358;11.256;2023-07-24T11:20:06;13.75;;;7.80;;
8642;SDS011;4359;49.358;11.256;2023-07-24T11:22:32;11.73;;;7.43;;
8642;SDS011;4359;49.358;11.256;2023-07-24T11:24:58;15.52;;;7.88;;
8642;SDS011;4359;49.358;11.256;2023-07-24T11:27:24;11.98;;;7.75;;
8642;SDS011;4359;49.358;11.256;2023-07-24T11:29:50;13.18;;;8.23;;
8642;SDS011;4359;49.358;11.256;2023-07-24T11:32:22;12.75;;;7.50;;
8642;SDS011;4359;49.358;11.256;2023-07-24T11:34:48;10.70;;;7.68;;
8642;SDS011;4359;49.358;11.256;2023-07-24T11:37:15;12.07;;;7.95;;
8642;SDS011;4359;49.358;11.256;2023-07-24T11:39:41;12.23;;;8.13;;
8642;SDS011;4359;49.358;11.256;2023-07-24T11:42:07;12.98;;;7.78;;
8642;SDS011;4359;49.358;11.256;2023-07-24T11:44:33;13.07;;;8.07;;
8642;SDS011;4359;49.358;11.256;2023-07-24T11:47:05;15.77;;;7.60;;
8642;SDS011;4359;49.358;11.256;2023-07-24T11:49:32;11.23;;;7.80;;
8642;SDS011;4359;49.358;11.256;2023-07-24T11:52:03;12.52;;;7.50;;
8642;SDS011;4359;49.358;11.256;2023-07-24T11:54:29;11.80;;;7.65;;
8642;SDS011;4359;49.358;11.256;2023-07-24T11:56:55;10.98;;;7.13;;
8642;SDS011;4359;49.358;11.256;2023-07-24T11:59:20;10.32;;;7.07;;
8642;SDS011;4359;49.358;11.256;2023-07-24T12:01:49;12.10;;;6.85;;
8642;SDS011;4359;49.358;11.256;2023-07-24T12:04:15;11.93;;;6.72;;
8642;SDS011;4359;49.358;11.256;2023-07-24T12:06:41;8.63;;;6.20;;
8642;SDS011;4359;49.358;11.256;2023-07-24T12:09:07;10.85;;;6.65;;
8642;SDS011;4359;49.358;11.256;2023-07-24T12:11:33;11.05;;;6.45;;
8642;SDS011;4359;49.358;11.256;2023-07-24T12:14:03;9.68;;;6.43;;
8642;SDS011;4359;49.358;11.256;2023-07-24T12:16:29;11.00;;;6.47;;
8642;SDS011;4359;49.358;11.256;2023-07-24T12:18:55;10.38;;;6.40;;
8642;SDS011;4359;49.358;11.256;2023-07-24T12:21:21;9.93;;;6.20;;
8642;SDS011;4359;49.358;11.256;2023-07-24T12:23:47;9.60;;;6.00;;
8642;SDS011;4359;49.358;11.256;2023-07-24T12:26:12;8.52;;;6.25;;
8642;SDS011;4359;49.358;11.256;2023-07-24T12:28:39;9.85;;;6.10;;
8642;SDS011;4359;49.358;11.256;2023-07-24T12:31:04;14.00;;;6.57;;
8642;SDS011;4359;49.358;11.256;2023-07-24T12:33:31;8.05;;;5.95;;
8642;SDS011;4359;49.358;11.256;2023-07-24T12:35:56;9.07;;;6.28;;
8642;SDS011;4359;49.358;11.256;2023-07-24T12:38:22;10.38;;;5.78;;
8642;SDS011;4359;49.358;11.256;2023-07-24T12:40:47;10.20;;;6.13;;
8642;SDS011;4359;49.358;11.256;2023-07-24T12:43:14;9.48;;;5.82;;
8642;SDS011;4359;49.358;11.256;2023-07-24T12:45:40;11.98;;;6.10;;
8642;SDS011;4359;49.358;11.256;2023-07-24T12:48:06;9.88;;;5.68;;
8642;SDS011;4359;49.358;11.256;2023-07-24T12:50:32;8.75;;;6.00;;
8642;SDS011;4359;49.358;11.256;2023-07-24T12:52:58;8.25;;;5.70;;
8642;SDS011;4359;49.358;11.256;2023-07-24T12:55:24;10.25;;;6.03;;
8642;SDS011;4359;49.358;11.256;2023-07-24T12:57:50;9.50;;;6.28;;
8642;SDS011;4359;49.358;11.256;2023-07-24T13:00:16;10.40;;;5.95;;
8642;SDS011;4359;49.358;11.256;2023-07-24T13:02:41;9.35;;;5.80;;
8642;SDS011;4359;49.358;11.256;2023-07-24T13:05:07;10.57;;;6.47;;
8642;SDS011;4359;49.358;11.256;2023-07-24T13:07:33;9.75;;;6.13;;
8642;SDS011;4359;49.358;11.256;2023-07-24T13:09:58;12.15;;;6.40;;
8642;SDS011;4359;49.358;11.256;2023-07-24T13:12:24;8.93;;;6.03;;
8642;SDS011;4359;49.358;11.256;2023-07-24T13:14:50;9.93;;;6.15;;
8642;SDS011;4359;49.358;11.256;2023-07-24T13:17:16;8.30;;;5.65;;
8642;SDS011;4359;49.358;11.256;2023-07-24T13:19:41;9.00;;;5.75;;
8642;SDS011;4359;49.358;11.256;2023-07-24T13:22:07;8.68;;;5.78;;
8642;SDS011;4359;49.358;11.256;2023-07-24T13:24:32;9.05;;;5.60;;
8642;SDS011;4359;49.358;11.256;2023-07-24T13:26:58;9.32;;;5.60;;
8642;SDS011;4359;49.358;11.256;2023-07-24T13:29:24;11.02;;;6.53;;
8642;SDS011;4359;49.358;11.256;2023-07-24T13:31:50;8.00;;;5.25;;
8642;SDS011;4359;49.358;11.256;2023-07-24T13:34:17;9.60;;;6.07;;
8642;SDS011;4359;49.358;11.256;2023-07-24T13:36:44;8.18;;;5.00;;
8642;SDS011;4359;49.358;11.256;2023-07-24T13:39:11;8.02;;;4.90;;
8642;SDS011;4359;49.358;11.256;2023-07-24T13:41:37;8.05;;;5.22;;
8642;SDS011;4359;49.358;11.256;2023-07-24T13:44:03;8.60;;;5.38;;
8642;SDS011;4359;49.358;11.256;2023-07-24T13:46:29;10.18;;;5.82;;
8642;SDS011;4359;49.358;11.256;2023-07-24T13:48:55;8.18;;;5.13;;
8642;SDS011;4359;49.358;11.256;2023-07-24T13:51:20;8.68;;;5.13;;
8642;SDS011;4359;49.358;11.256;2023-07-24T13:53:46;8.38;;;5.03;;
8642;SDS011;4359;49.358;11.256;2023-07-24T13:56:16;8.90;;;5.50;;
8642;SDS011;4359;49.358;11.256;2023-07-24T13:58:43;8.68;;;5.35;;
8642;SDS011;4359;49.358;11.256;2023-07-24T14:01:09;11.23;;;5.30;;
8642;SDS011;4359;49.358;11.256;2023-07-24T14:03:35;7.75;;;5.20;;
8642;SDS011;4359;49.358;11.256;2023-07-24T14:06:01;10.18;;;5.35;;
8642;SDS011;4359;49.358;11.256;2023-07-24T14:08:26;8.13;;;4.95;;
8642;SDS011;4359;49.358;11.256;2023-07-24T14:10:52;9.23;;;5.78;;
8642;SDS011;4359;49.358;11.256;2023-07-24T14:13:18;10.10;;;5.00;;
8642;SDS011;4359;49.358;11.256;2023-07-24T14:15:44;11.07;;;5.50;;
8642;SDS011;4359;49.358;11.256;2023-07-24T14:18:09;8.32;;;4.90;;
8642;SDS011;4359;49.358;11.256;2023-07-24T14:20:35;7.28;;;4.80;;
8642;SDS011;4359;49.358;11.256;2023-07-24T14:23:02;9.30;;;5.53;;
8642;SDS011;4359;49.358;11.256;2023-07-24T14:25:28;7.47;;;4.60;;
8642;SDS011;4359;49.358;11.256;2023-07-24T14:27:53;8.00;;;5.18;;
8642;SDS011;4359;49.358;11.256;2023-07-24T14:30:19;7.50;;;4.85;;
8642;SDS011;4359;49.358;11.256;2023-07-24T14:32:45;6.93;;;5.07;;
8642;SDS011;4359;49.358;11.256;2023-07-24T14:35:10;6.95;;;4.80;;
8642;SDS011;4359;49.358;11.256;2023-07-24T14:37:36;6.25;;;4.78;;
8642;SDS011;4359;49.358;11.256;2023-07-24T14:40:02;7.05;;;4.40;;
8642;SDS011;4359;49.358;11.256;2023-07-24T14:42:28;8.85;;;4.70;;
8642;SDS011;4359;49.358;11.256;2023-07-24T14:44:54;7.03;;;4.88;;
8642;SDS011;4359;49.358;11.256;2023-07-24T14:47:19;7.68;;;4.85;;
8642;SDS011;4359;49.358;11.256;2023-07-24T14:49:45;7.82;;;4.78;;
8642;SDS011;4359;49.358;11.256;2023-07-24T14:52:11;6.45;;;4.57;;
8642;SDS011;4359;49.358;11.256;2023-07-24T14:54:36;7.45;;;4.97;;